Latest Weather Observations for Marree Airport

IDS60801

Issued at 7:31 am CST Tuesday 26 September 2017 (issued every 30 minutes, with the page automatically refreshed every 10 minutes)

About weather observations | Map of weather stations | Latest weather observations for SA | Other Formats
Station Details ID: 017126 Name: MARREE AERO Lat: -29.66 Lon: 138.07 Height: 50.0 m
Data from the previous 72 hours. | See also: Recent months at Marree Airport
Date/Time
CST
Temp
°C
App
Temp
°C
Dew
Point
°C
Rel
Hum
%
Delta-T
°C
Wind Press
QNH
hPa
Press
MSL
hPa
Rain since
9am
mm
Dir  Spd
km/h
Gust
km/h
Spd
kts
Gust
kts
26/07:30am 21.0 13.9 -1.5 22 9.8 E 26 33 14 18 1010.9 1010.7 0.0
26/07:00am 19.8 12.3 -1.3 24 9.1 E 28 37 15 20 1010.6 1010.4 0.0
26/06:30am 18.8 12.0 -1.6 25 8.7 E 24 37 13 20 1010.7 1010.5 0.0
26/06:00am 18.7 11.9 -1.7 25 8.6 E 24 33 13 18 1010.4 1010.2 0.0
26/05:30am 18.8 12.4 -1.6 25 8.7 E 22 28 12 15 1010.1 1009.9 0.0
26/05:00am 17.4 12.4 -1.3 28 7.9 E 15 24 8 13 1009.7 1009.5 0.0
26/04:30am 16.6 10.8 -1.5 29 7.5 ESE 19 28 10 15 1009.4 1009.2 0.0
26/04:00am 15.1 9.6 -1.9 31 6.9 SE 17 22 9 12 1009.5 1009.3 0.0
26/03:30am 15.0 9.9 -2.0 31 6.9 SSE 15 17 8 9 1009.6 1009.4 0.0
26/03:00am 15.3 10.2 -1.7 31 7.0 SSE 15 17 8 9 1009.8 1009.6 0.0
26/02:30am 15.9 10.5 -1.6 30 7.2 SSE 17 20 9 11 1009.9 1009.7 0.0
26/02:00am 16.2 10.8 -1.4 30 7.3 SSE 17 19 9 10 1010.1 1009.9 0.0
26/01:30am 15.7 11.0 -1.8 30 7.2 SSE 13 15 7 8 1010.5 1010.3 0.0
26/01:00am 17.2 11.4 -1.4 28 7.8 SSE 19 20 10 11 1010.6 1010.4 0.0
26/12:30am 17.6 12.2 -1.6 27 8.1 SE 17 19 9 10 1010.8 1010.6 0.0
26/12:00am 18.2 12.8 -1.6 26 8.4 SSE 17 19 9 10 1010.8 1010.6 0.0
 
Date/Time
CST
Temp
°C
App
Temp
°C
Dew
Point
°C
Rel
Hum
%
Delta-T
°C
Wind Press
QNH
hPa
Press
MSL
hPa
Rain since
9am
mm
Dir  Spd
km/h
Gust
km/h
Spd
kts
Gust
kts
25/11:30pm 18.5 13.4 -1.9 25 8.6 SE 15 19 8 10 1011.0 1010.8 0.0
25/11:00pm 18.9 13.8 -2.1 24 8.8 SSE 15 19 8 10 1011.1 1010.9 0.0
25/10:30pm 21.6 15.3 -1.0 22 9.9 ESE 22 26 12 14 1011.4 1011.2 0.0
25/10:00pm 22.0 16.0 -1.3 21 10.2 E 20 26 11 14 1011.4 1011.2 0.0
25/09:30pm 22.3 16.2 -2.4 19 10.6 E 20 28 11 15 1011.6 1011.5 0.0
25/09:00pm 22.7 16.5 -2.8 18 10.9 E 20 26 11 14 1011.8 1011.7 0.0
25/08:30pm 23.8 17.7 -2.7 17 11.5 ENE 20 28 11 15 1011.8 1011.7 0.0
25/08:00pm 24.5 18.0 -2.1 17 11.7 ENE 22 28 12 15 1011.2 1011.0 0.0
25/07:30pm 25.4 19.0 -1.4 17 12.1 NE 22 28 12 15 1010.8 1010.6 0.0
25/07:00pm 25.9 20.2 -1.0 17 12.3 NE 19 24 10 13 1010.3 1010.1 0.0
25/06:30pm 27.0 21.3 -0.9 16 12.9 ENE 19 22 10 12 1009.9 1009.7 0.0
25/06:00pm 28.2 22.4 0.0 16 13.3 NE 20 24 11 13 1009.4 1009.2 0.0
25/05:30pm 28.9 23.3 -0.3 15 13.8 ENE 19 24 10 13 1009.0 1008.9 0.0
25/05:00pm 29.5 23.7 0.2 15 14.0 ENE 20 32 11 17 1008.6 1008.5 0.0
25/04:30pm 29.7 23.5 -0.6 14 14.3 ENE 22 32 12 17 1008.3 1008.2 0.0
25/04:00pm 29.8 24.1 -0.5 14 14.3 E 19 44 10 24 1008.4 1008.3 0.0
25/03:30pm 29.6 25.0 -0.7 14 14.3 ESE 13 26 7 14 1008.8 1008.7 0.0
25/03:00pm 29.5 23.9 0.2 15 14.0 ENE 19 24 10 13 1009.4 1009.2 0.0
25/02:30pm 29.5 25.3 -0.8 14 14.3 ENE 11 20 6 11 1009.7 1009.5 0.0
25/02:00pm 29.4 24.8 -0.9 14 14.2 ESE 13 24 7 13 1010.2 1010.0 0.0
25/01:30pm 29.5 24.8 -1.8 13 14.5 SE 13 19 7 10 1010.7 1010.5 0.0
25/01:00pm 29.0 24.8 -1.2 14 14.0 ESE 11 26 6 14 1011.2 1011.0 0.0
25/12:30pm 28.5 23.8 -1.6 14 13.9 E 13 20 7 11 1011.9 1011.8 0.0
25/12:00pm 27.5 22.2 -0.5 16 13.0 NE 17 22 9 12 1012.2 1012.1 0.0
25/11:30am 27.3 21.9 -1.6 15 13.2 ENE 17 26 9 14 1012.7 1012.6 0.0
25/11:00am 26.1 20.8 -0.8 17 12.3 ENE 17 24 9 13 1013.0 1012.9 0.0
25/10:30am 25.3 19.6 -0.7 18 11.9 E 19 26 10 14 1013.4 1013.3 0.0
25/10:00am 23.6 17.7 -0.6 20 10.9 ESE 20 26 11 14 1013.8 1013.7 0.0
25/09:30am 22.9 17.2 0.7 23 10.2 ESE 20 28 11 15 1013.3 1013.2 0.0
25/09:00am 21.6 16.7 1.8 27 9.2 ESE 17 22 9 12 1013.2 1013.1 0.0
25/08:30am 19.7 14.8 1.7 30 8.2 SE 17 20 9 11 1013.2 1013.1 0.0
25/08:00am 18.4 13.5 1.9 33 7.5 SE 17 19 9 10 1012.8 1012.7 0.0
25/07:30am 16.3 12.1 1.6 37 6.5 SE 13 17 7 9 1012.6 1012.5 0.0
25/07:00am 14.6 10.4 1.5 41 5.7 SE 13 17 7 9 1012.1 1012.0 0.0
25/06:30am 13.9 9.7 1.5 43 5.4 SE 13 15 7 8 1011.6 1011.5 0.0
25/06:00am 14.5 9.2 1.8 42 5.6 SE 19 20 10 11 1010.8 1010.6 0.0
25/05:30am 15.2 9.7 1.7 40 5.9 SE 20 24 11 13 1010.7 1010.5 0.0
25/05:00am 15.9 10.0 2.0 39 6.2 SSE 22 28 12 15 1010.7 1010.5 0.0
25/04:30am 15.8 8.8 1.9 39 6.2 SSE 28 33 15 18 1010.3 1010.1 0.0
25/04:00am 15.9 8.9 2.0 39 6.2 SSE 28 35 15 19 1010.0 1009.8 0.0
25/03:30am 15.9 9.3 2.0 39 6.2 SSE 26 32 14 17 1009.8 1009.6 0.0
25/03:00am 16.1 10.2 1.4 37 6.5 SSE 22 26 12 14 1010.2 1010.0 0.0
25/02:30am 16.8 9.7 1.3 35 6.9 SSE 28 35 15 19 1010.4 1010.2 0.0
25/02:00am 17.3 10.6 1.3 34 7.1 SSE 26 32 14 17 1010.4 1010.2 0.0
25/01:30am 17.2 11.2 1.2 34 7.1 SSE 22 26 12 14 1010.1 1009.9 0.0
25/01:00am 17.3 11.3 0.9 33 7.2 SSE 22 26 12 14 1010.0 1009.8 0.0
25/12:30am 17.5 11.0 0.6 32 7.4 NE 24 30 13 16 1010.2 1010.0 0.0
25/12:00am 17.6 11.9 0.3 31 7.6 N 20 24 11 13 1010.6 1010.4 0.0
 
Date/Time
CST
Temp
°C
App
Temp
°C
Dew
Point
°C
Rel
Hum
%
Delta-T
°C
Wind Press
QNH
hPa
Press
MSL
hPa
Rain since
9am
mm
Dir  Spd
km/h
Gust
km/h
Spd
kts
Gust
kts
24/11:30pm 16.9 12.0 -0.3 31 7.4 NNE 15 17 8 9 1010.9 1010.7 0.0
24/11:00pm 16.1 11.8 -1.5 30 7.3 ENE 11 13 6 7 1011.0 1010.8 0.0
24/10:30pm 17.2 13.0 -1.0 29 7.7 ENE 11 13 6 7 1010.9 1010.7 0.0
24/10:00pm 18.0 13.5 -0.3 29 7.9 N 13 15 7 8 1010.8 1010.6 0.0
24/09:30pm 18.8 14.6 -0.6 27 8.4 ENE 11 15 6 8 1010.9 1010.7 0.0
24/09:00pm 19.9 14.7 -0.1 26 8.8 S 17 17 9 9 1010.7 1010.5 0.0
24/08:30pm 20.5 15.3 -0.2 25 9.2 SSW 17 17 9 9 1010.5 1010.3 0.0
24/08:00pm 21.7 16.5 0.3 24 9.7 SW 17 19 9 10 1010.0 1009.8 0.0
24/07:30pm 21.9 17.8 -0.1 23 9.9 SW 11 13 6 7 1009.5 1009.3 0.0
24/07:00pm 23.8 18.6 0.2 21 10.8 SW 17 20 9 11 1008.8 1008.7 0.0
24/06:30pm 24.8 19.5 -0.4 19 11.5 SW 17 20 9 11 1008.4 1008.3 0.0
24/06:00pm 25.7 20.0 -0.4 18 12.0 WSW 19 26 10 14 1007.9 1007.8 0.0
24/05:30pm 26.4 20.7 -0.6 17 12.5 WSW 19 28 10 15 1007.7 1007.6 0.0
24/05:00pm 26.9 21.3 -0.2 17 12.6 SW 19 32 10 17 1007.5 1007.4 0.0
24/04:30pm 27.8 21.8 -1.2 15 13.4 W 20 41 11 22 1007.5 1007.4 0.0
24/04:00pm 27.8 20.7 -1.2 15 13.4 WSW 26 37 14 20 1007.5 1007.4 0.0
24/03:30pm 27.9 20.8 -1.1 15 13.4 WSW 26 35 14 19 1007.5 1007.4 0.0
24/03:00pm 27.4 21.4 -1.5 15 13.2 WNW 20 32 11 17 1007.8 1007.7 0.0
24/02:30pm 27.2 21.8 -1.7 15 13.2 WNW 17 28 9 15 1007.9 1007.8 0.0
24/02:00pm 27.5 21.5 -1.4 15 13.2 WSW 20 30 11 16 1008.5 1008.4 0.0
24/01:30pm 27.8 22.8 -1.2 15 13.4 WNW 15 24 8 13 1009.0 1008.9 0.0
24/01:00pm 26.0 20.1 -0.9 17 12.3 W 20 32 11 17 1009.6 1009.4 0.0
24/12:30pm 25.1 18.8 -0.9 18 11.8 SW 22 30 12 16 1010.0 1009.8 0.0
24/12:00pm 25.0 19.8 -0.2 19 11.6 S 17 32 9 17 1010.4 1010.2 0.0
24/11:30am 24.1 19.6 -0.2 20 11.1 SW 13 20 7 11 1010.8 1010.6 0.0
24/11:00am 23.7 18.5 0.1 21 10.8 ESE 17 26 9 14 1011.4 1011.2 0.0
24/10:30am 23.1 17.3 0.2 22 10.4 SSE 20 32 11 17 1011.5 1011.4 0.0
24/10:00am 22.6 16.5 0.4 23 10.1 SSE 22 32 12 17 1011.4 1011.2 0.0
24/09:30am 21.7 15.7 0.8 25 9.5 SSE 22 32 12 17 1011.7 1011.6 0.0
24/09:00am 20.7 13.6 1.1 27 8.9 ESE 28 35 15 19 1011.6 1011.5 0.0
24/08:30am 19.6 13.2 1.1 29 8.3 SE 24 33 13 18 1011.8 1011.7 0.0
24/08:00am 18.1 12.8 1.6 33 7.4 SSE 19 24 10 13 1011.5 1011.4 0.0
24/07:30am 16.9 12.0 1.8 36 6.8 SE 17 22 9 12 1011.0 1010.8 0.0
24/07:00am 16.0 11.4 1.7 38 6.3 SSE 15 20 8 11 1010.8 1010.6 0.0
24/06:30am 15.2 10.3 1.7 40 5.9 NE 17 20 9 11 1010.3 1010.1 0.0
24/06:00am 15.5 10.2 1.6 39 6.1 NE 19 22 10 12 1009.7 1009.5 0.0
24/05:30am 16.3 10.3 1.2 36 6.6 E 22 28 12 15 1009.1 1009.0 0.0
24/05:00am 17.0 10.2 1.0 34 7.0 S 26 33 14 18 1008.4 1008.3 0.0
24/04:30am 17.6 10.2 1.6 34 7.2 S 30 37 16 20 1007.8 1007.7 0.0
24/04:00am 18.2 11.7 0.4 30 7.8 SSW 24 32 13 17 1007.6 1007.5 0.0
24/03:30am 18.2 12.8 -1.1 27 8.2 S 17 20 9 11 1007.1 1007.0 0.0
24/03:00am 19.4 13.7 -1.1 25 8.9 SSW 19 22 10 12 1006.7 1006.6 0.0
24/02:30am 16.1 11.6 -0.6 32 7.1 SW 13 15 7 8 1006.7 1006.6 0.0
24/02:00am 17.3 12.2 0.9 33 7.2 SSW 17 19 9 10 1006.6 1006.5 0.0
24/01:30am 16.9 12.9 0.5 33 7.2 N 11 13 6 7 1006.5 1006.4 0.0
24/01:00am 17.8 14.2 0.9 32 7.5 N 9 11 5 6 1006.3 1006.2 0.0
24/12:30am 18.4 14.9 1.0 31 7.8 N 9 11 5 6 1006.2 1006.1 0.0
24/12:00am 18.7 15.2 1.2 31 7.9 NNE 9 11 5 6 1006.2 1006.1 0.0
 
Date/Time
CST
Temp
°C
App
Temp
°C
Dew
Point
°C
Rel
Hum
%
Delta-T
°C
Wind Press
QNH
hPa
Press
MSL
hPa
Rain since
9am
mm
Dir  Spd
km/h
Gust
km/h
Spd
kts
Gust
kts
23/11:30pm 19.4 15.9 1.4 30 8.2 NE 9 13 5 7 1006.4 1006.3 0.0
23/11:00pm 20.9 16.7 1.7 28 8.9 SSW 13 13 7 7 1006.4 1006.3 0.0
23/10:30pm 22.2 17.7 2.3 27 9.4 SW 15 17 8 9 1006.7 1006.6 0.0
23/10:00pm 23.5 19.0 2.4 25 10.1 SW 15 19 8 10 1006.8 1006.7 0.0
23/09:30pm 24.2 19.4 2.4 24 10.5 SW 17 20 9 11 1006.8 1006.7 0.0
23/09:00pm 25.0 20.2 2.4 23 10.9 SW 17 20 9 11 1006.7 1006.6 0.0
23/08:30pm 25.4 20.6 2.8 23 11.0 SW 17 20 9 11 1007.0 1006.9 0.0
23/08:00pm 26.0 21.2 2.7 22 11.4 WSW 17 20 9 11 1006.9 1006.8 0.0
23/07:30pm 27.0 21.7 2.8 21 11.9 WSW 20 26 11 14 1006.4 1006.3 0.0
23/07:00pm 27.4 22.3 3.2 21 12.0 WSW 19 20 10 11 1005.8 1005.7 0.0
23/06:30pm 28.6 23.0 3.5 20 12.7 WSW 22 30 12 16 1005.2 1005.1 0.0
23/06:00pm 29.8 23.9 3.7 19 13.3 W 24 32 13 17 1004.5 1004.4 0.0
23/05:30pm 31.0 24.3 3.9 18 14.0 W 28 39 15 21 1004.1 1004.0 0.0
23/05:00pm 31.7 25.0 3.7 17 14.4 WSW 28 39 15 21 1003.7 1003.6 0.0
23/04:30pm 32.5 25.5 4.3 17 14.8 W 30 41 16 22 1003.4 1003.3 0.0
23/04:00pm 33.4 26.6 3.3 15 15.6 W 28 39 15 21 1003.6 1003.5 0.0
23/03:30pm 33.3 25.9 4.1 16 15.3 WSW 32 44 17 24 1003.6 1003.5 0.0
23/03:00pm 33.3 26.3 4.1 16 15.3 W 30 46 16 25 1003.6 1003.5 0.0
23/02:30pm 34.0 27.7 5.5 17 15.4 SW 28 37 15 20 1003.7 1003.6 0.0
23/02:00pm 33.3 27.2 5.0 17 15.0 SW 26 37 14 20 1003.7 1003.6 0.0
23/01:30pm 34.3 27.3 4.0 15 16.0 SW 30 39 16 21 1003.8 1003.7 0.0
23/01:00pm 33.4 27.6 4.2 16 15.3 WSW 24 35 13 19 1003.9 1003.8 0.0
23/12:30pm 33.3 27.4 4.1 16 15.3 SW 24 35 13 19 1004.1 1004.0 0.0
23/12:00pm 33.3 26.3 4.1 16 15.3 SW 30 41 16 22 1004.2 1004.1 0.0
23/11:30am 33.1 26.1 3.9 16 15.3 SW 30 43 16 23 1004.2 1004.1 0.0
23/11:00am 32.3 24.2 3.3 16 14.9 SW 35 48 19 26 1004.3 1004.2 0.0
23/10:30am 32.2 23.4 1.3 14 15.4 SW 37 46 20 25 1004.1 1004.0 0.0
23/10:00am 31.9 22.7 -1.0 12 15.7 SW 37 46 20 25 1003.6 1003.5 0.0
23/09:30am 31.1 22.3 -4.1 10 15.9 WSW 33 41 18 22 1003.5 1003.4 0.0
23/09:00am 28.4 20.6 -3.7 12 14.3 W 28 39 15 21 1003.9 1003.8 0.0
23/08:30am 27.7 19.8 -4.3 12 14.0 WNW 28 39 15 21 1003.7 1003.6 0.0
23/08:00am 25.9 20.9 -4.6 13 13.0 NW 13 19 7 10 1003.2 1003.1 0.0

Other Formats:

Comma delimited format used in spreadsheet applications
http://www.bom.gov.au/fwo/IDS60801/IDS60801.95480.axf

JavaScript Object Notation format (JSON) in row-major order
http://www.bom.gov.au/fwo/IDS60801/IDS60801.95480.json